createdAt,value
2023-05-04T00:02:34.514Z,3.63
2023-05-04T00:05:37.165Z,3.13
2023-05-04T00:08:39.981Z,3.63
2023-05-04T00:11:42.693Z,3.90
2023-05-04T00:14:45.515Z,3.43
2023-05-04T00:17:48.105Z,3.47
2023-05-04T00:20:52.772Z,3.50
2023-05-04T00:23:55.293Z,3.33
2023-05-04T00:26:57.860Z,3.38
2023-05-04T00:30:00.387Z,3.53
2023-05-04T00:33:03.006Z,3.70
2023-05-04T00:36:05.904Z,3.17
2023-05-04T00:39:08.471Z,3.03
2023-05-04T00:42:11.382Z,3.63
2023-05-04T00:45:15.580Z,3.83
2023-05-04T00:48:18.757Z,3.20
2023-05-04T00:51:23.636Z,3.45
2023-05-04T00:54:26.605Z,3.40
2023-05-04T00:57:29.192Z,3.22
2023-05-04T01:00:44.822Z,2.80
2023-05-04T01:03:49.383Z,3.00
2023-05-04T01:07:06.054Z,3.22
2023-05-04T01:10:59.756Z,3.00
2023-05-04T01:14:03.587Z,2.70
2023-05-04T01:17:07.754Z,2.77
2023-05-04T01:20:10.687Z,3.00
2023-05-04T01:23:13.377Z,2.42
2023-05-04T01:26:27.612Z,2.88
2023-05-04T01:29:45.458Z,2.70
2023-05-04T01:32:49.619Z,2.50
2023-05-04T01:35:52.391Z,2.87
2023-05-04T01:38:57.662Z,2.88
2023-05-04T01:42:01.424Z,2.45
2023-05-04T01:45:04.505Z,2.28
2023-05-04T01:48:07.075Z,2.43
2023-05-04T01:51:10.070Z,2.60
2023-05-04T01:54:12.876Z,2.58
2023-05-04T01:57:15.326Z,1.90
2023-05-04T02:00:18.198Z,2.53
2023-05-04T02:03:20.888Z,2.73
2023-05-04T02:06:23.688Z,2.50
2023-05-04T02:09:26.384Z,2.50
2023-05-04T02:12:29.065Z,2.80
2023-05-04T02:15:31.622Z,2.90
2023-05-04T02:18:34.495Z,2.20
2023-05-04T02:21:37.063Z,2.17
2023-05-04T02:24:40.846Z,2.00
2023-05-04T02:27:43.363Z,2.03
2023-05-04T02:30:45.991Z,2.38
2023-05-04T02:33:51.310Z,2.03
2023-05-04T02:36:53.766Z,1.93
2023-05-04T02:39:56.309Z,2.33
2023-05-04T02:42:58.878Z,2.10
2023-05-04T02:46:02.693Z,2.53
2023-05-04T02:49:06.460Z,2.27
2023-05-04T02:52:09.234Z,2.17
2023-05-04T02:55:11.882Z,2.50
2023-05-04T02:58:14.433Z,2.10
2023-05-04T03:01:17.697Z,2.95
2023-05-04T03:04:20.209Z,2.30
2023-05-04T03:07:22.900Z,1.93
2023-05-04T03:10:25.892Z,2.50
2023-05-04T03:13:28.376Z,2.72
2023-05-04T03:16:31.057Z,2.08
2023-05-04T03:19:33.690Z,1.90
2023-05-04T03:22:36.273Z,2.40
2023-05-04T03:25:38.990Z,2.03
2023-05-04T03:28:41.620Z,2.53
2023-05-04T03:31:44.362Z,1.88
2023-05-04T03:34:50.439Z,2.00
2023-05-04T03:37:53.319Z,2.57
2023-05-04T03:40:57.546Z,2.30
2023-05-04T03:44:00.070Z,1.98
2023-05-04T03:47:02.591Z,2.47
2023-05-04T03:50:06.537Z,2.40
2023-05-04T03:53:09.553Z,2.70
2023-05-04T03:56:12.118Z,2.08
2023-05-04T03:59:14.627Z,2.80
2023-05-04T04:02:17.711Z,2.30
2023-05-04T04:05:21.209Z,2.60
2023-05-04T04:08:26.232Z,1.77
2023-05-04T04:11:28.853Z,2.22
2023-05-04T04:14:31.658Z,2.42
2023-05-04T04:17:34.178Z,2.67
2023-05-04T04:20:39.685Z,3.17
2023-05-04T04:23:42.307Z,2.23
2023-05-04T04:26:44.894Z,2.42
2023-05-04T04:29:47.469Z,2.88
2023-05-04T04:32:50.099Z,2.47
2023-05-04T04:35:53.239Z,2.50
2023-05-04T04:38:56.467Z,2.40
2023-05-04T04:41:59.070Z,2.50
2023-05-04T04:45:05.338Z,2.10
2023-05-04T04:48:07.949Z,2.55
2023-05-04T04:51:12.192Z,2.03
2023-05-04T04:54:15.028Z,2.33
2023-05-04T04:57:18.096Z,2.70
2023-05-04T05:00:22.531Z,2.28
2023-05-04T05:03:25.828Z,1.80
2023-05-04T05:06:28.340Z,2.63
2023-05-04T05:09:30.868Z,2.17
2023-05-04T05:12:33.490Z,2.00
2023-05-04T05:15:36.194Z,1.80
2023-05-04T05:18:38.676Z,1.50
2023-05-04T05:21:41.717Z,2.10
2023-05-04T05:24:46.583Z,1.47
2023-05-04T05:27:50.001Z,1.13
2023-05-04T05:30:53.005Z,1.52
2023-05-04T05:33:55.611Z,1.58
2023-05-04T05:36:58.389Z,1.90
2023-05-04T05:40:01.085Z,1.50
2023-05-04T05:43:06.023Z,1.38
2023-05-04T05:46:08.522Z,1.52
2023-05-04T05:49:11.494Z,1.52
2023-05-04T05:52:14.211Z,1.30
2023-05-04T05:55:16.799Z,1.70
2023-05-04T05:58:19.366Z,1.55
2023-05-04T06:01:22.632Z,1.90
2023-05-04T06:04:25.542Z,1.90
2023-05-04T06:07:28.081Z,1.17
2023-05-04T06:10:32.212Z,1.50
2023-05-04T06:13:34.780Z,1.75
2023-05-04T06:16:37.556Z,1.77
2023-05-04T06:19:40.924Z,1.35
2023-05-04T06:22:43.583Z,1.60
2023-05-04T06:25:46.258Z,1.30
2023-05-04T06:28:49.334Z,1.50
2023-05-04T06:31:51.956Z,1.38
2023-05-04T06:34:55.644Z,2.03
2023-05-04T06:37:58.651Z,1.40
2023-05-04T06:41:01.896Z,1.70
2023-05-04T06:44:05.393Z,1.45
2023-05-04T06:47:08.278Z,1.40
2023-05-04T06:50:12.343Z,1.70
2023-05-04T06:53:15.196Z,1.60
2023-05-04T06:56:23.824Z,1.90
2023-05-04T06:59:26.857Z,1.83
2023-05-04T07:02:29.492Z,1.90
2023-05-04T07:05:35.929Z,1.38
2023-05-04T07:08:40.549Z,1.80
2023-05-04T07:11:43.129Z,1.73
2023-05-04T07:14:45.814Z,1.98
2023-05-04T07:17:49.938Z,1.90
2023-05-04T07:20:54.260Z,2.33
2023-05-04T07:24:01.780Z,2.17
2023-05-04T07:27:04.414Z,1.90
2023-05-04T07:30:08.901Z,1.90
2023-05-04T07:33:12.082Z,1.48
2023-05-04T07:36:14.710Z,1.73
2023-05-04T07:39:17.359Z,1.63
2023-05-04T07:42:19.972Z,1.67
2023-05-04T07:45:22.608Z,1.73
2023-05-04T07:48:26.552Z,1.98
2023-05-04T07:51:29.515Z,1.90
2023-05-04T07:54:32.257Z,2.00
2023-05-04T07:57:37.844Z,2.00
2023-05-04T08:00:40.702Z,1.40
2023-05-04T08:03:45.338Z,1.90
2023-05-04T08:06:49.597Z,1.38
2023-05-04T08:09:54.069Z,1.63
2023-05-04T08:12:57.091Z,1.57
2023-05-04T08:16:01.392Z,1.88
2023-05-04T08:19:04.042Z,2.00
2023-05-04T08:22:07.150Z,1.98
2023-05-04T08:25:09.920Z,1.80
2023-05-04T08:28:13.426Z,1.50
2023-05-04T08:31:18.983Z,1.80
2023-05-04T08:34:23.682Z,1.50
2023-05-04T08:37:27.755Z,1.63
2023-05-04T08:40:35.288Z,1.87
2023-05-04T08:43:39.241Z,1.70
2023-05-04T08:46:43.737Z,1.73
2023-05-04T08:49:49.027Z,1.42
2023-05-04T08:52:53.690Z,1.73
2023-05-04T08:55:59.325Z,2.03
2023-05-04T08:59:04.131Z,1.60
2023-05-04T09:02:08.451Z,1.83
2023-05-04T09:05:12.267Z,1.95
2023-05-04T09:08:15.593Z,2.10
2023-05-04T09:11:19.622Z,1.60
2023-05-04T09:14:32.823Z,2.13
2023-05-04T09:17:42.031Z,2.17
2023-05-04T09:20:50.642Z,2.00
2023-05-04T09:23:53.497Z,1.63
2023-05-04T09:27:08.305Z,1.90
2023-05-04T09:30:12.908Z,1.80
2023-05-04T09:33:16.780Z,2.00
2023-05-04T09:36:21.333Z,1.98
2023-05-04T09:39:24.242Z,1.77
2023-05-04T09:42:27.142Z,1.70
2023-05-04T09:45:47.913Z,2.10
2023-05-04T09:48:55.655Z,1.92
2023-05-04T09:52:02.618Z,2.15
2023-05-04T09:55:06.270Z,1.52
2023-05-04T09:58:10.401Z,1.80
2023-05-04T10:01:13.054Z,2.23
2023-05-04T10:04:16.101Z,2.10
2023-05-04T10:07:19.582Z,2.20
2023-05-04T10:10:22.244Z,2.10
2023-05-04T10:13:41.950Z,1.77
2023-05-04T10:17:13.928Z,1.93
2023-05-04T10:20:39.657Z,2.08
2023-05-04T10:24:15.110Z,1.95
2023-05-04T10:27:32.179Z,1.85
2023-05-04T10:30:36.513Z,2.17
2023-05-04T10:33:42.748Z,2.00
2023-05-04T10:36:46.648Z,2.10
2023-05-04T10:39:53.930Z,1.95
2023-05-04T10:42:56.683Z,1.75
2023-05-04T10:46:01.319Z,2.10
2023-05-04T10:49:16.217Z,1.83
2023-05-04T10:52:19.010Z,1.85
2023-05-04T10:55:22.697Z,1.98
2023-05-04T10:58:31.679Z,2.20
2023-05-04T11:01:44.202Z,2.07
2023-05-04T11:04:46.995Z,2.13
2023-05-04T11:07:53.316Z,1.77
2023-05-04T11:11:09.289Z,2.00
2023-05-04T11:14:22.667Z,2.10
2023-05-04T11:17:28.562Z,2.10
2023-05-04T11:20:31.928Z,2.77
2023-05-04T11:23:34.645Z,2.20
2023-05-04T11:26:48.732Z,2.83
2023-05-04T11:30:00.809Z,2.50
2023-05-04T11:33:12.430Z,2.50
2023-05-04T11:36:15.875Z,2.20
2023-05-04T11:39:18.624Z,2.10
2023-05-04T11:42:21.213Z,2.08
2023-05-04T11:45:27.469Z,2.60
2023-05-04T11:48:32.432Z,2.30
2023-05-04T11:51:35.140Z,1.93
2023-05-04T11:54:37.967Z,2.33
2023-05-04T11:57:41.393Z,2.03
2023-05-04T12:00:47.225Z,2.05
2023-05-04T12:03:55.134Z,2.55
2023-05-04T12:06:59.598Z,2.30
2023-05-04T12:10:04.557Z,2.45
2023-05-04T12:13:16.896Z,2.20
2023-05-04T12:16:20.666Z,2.83
2023-05-04T12:19:23.359Z,2.53
2023-05-04T12:22:35.961Z,2.73
2023-05-04T12:25:47.372Z,2.60
2023-05-04T12:28:57.552Z,2.60
2023-05-04T12:32:00.106Z,2.38
2023-05-04T12:35:04.012Z,2.78
2023-05-04T12:38:06.984Z,2.67
2023-05-04T12:41:10.996Z,2.85
2023-05-04T12:44:14.388Z,2.67
2023-05-04T12:47:17.760Z,2.85
2023-05-04T12:50:20.491Z,3.20
2023-05-04T12:53:25.839Z,2.90
2023-05-04T12:56:28.692Z,2.90
2023-05-04T12:59:31.276Z,2.60
2023-05-04T13:02:33.864Z,2.80
2023-05-04T13:05:36.638Z,3.03
2023-05-04T13:08:39.592Z,2.70
2023-05-04T13:11:42.215Z,2.70
2023-05-04T13:14:44.980Z,3.17
2023-05-04T13:17:47.855Z,2.72
2023-05-04T13:20:55.114Z,2.45
2023-05-04T13:23:59.337Z,2.43
2023-05-04T13:27:02.959Z,2.92
2023-05-04T13:30:06.352Z,2.80
2023-05-04T13:33:20.689Z,2.40
2023-05-04T13:36:30.521Z,2.60
2023-05-04T13:39:41.043Z,2.30
2023-05-04T13:42:43.629Z,2.30
2023-05-04T13:45:46.518Z,2.40
2023-05-04T13:48:49.036Z,3.10
2023-05-04T13:51:51.636Z,2.70
2023-05-04T13:54:54.258Z,2.87
2023-05-04T13:57:56.951Z,3.00
2023-05-04T14:01:00.663Z,2.63
2023-05-04T14:04:03.888Z,2.78
2023-05-04T14:07:06.462Z,2.77
2023-05-04T14:10:09.508Z,2.97
2023-05-04T14:13:13.990Z,2.45
2023-05-04T14:16:16.583Z,3.05
2023-05-04T14:19:19.166Z,2.38
2023-05-04T14:22:22.083Z,2.73
2023-05-04T14:25:24.584Z,2.87
2023-05-04T14:28:27.152Z,2.75
2023-05-04T14:31:30.872Z,2.42
2023-05-04T14:34:33.699Z,2.47
2023-05-04T14:37:37.689Z,2.93
2023-05-04T14:40:40.881Z,2.57
2023-05-04T14:43:43.633Z,2.55
2023-05-04T14:46:46.175Z,2.40
2023-05-04T14:49:49.526Z,2.83
2023-05-04T14:52:52.230Z,2.90
2023-05-04T14:55:54.778Z,3.13
2023-05-04T14:58:57.351Z,3.25
2023-05-04T15:02:00.226Z,3.40
2023-05-04T15:05:02.940Z,3.08
2023-05-04T15:08:05.866Z,3.10
2023-05-04T15:11:10.206Z,3.40
2023-05-04T15:14:12.691Z,4.00
2023-05-04T15:17:15.253Z,4.25
2023-05-04T15:20:18.608Z,3.45
2023-05-04T15:23:21.605Z,3.60
2023-05-04T15:26:24.359Z,3.60
2023-05-04T15:29:27.028Z,3.33
2023-05-04T15:32:30.150Z,3.40
2023-05-04T15:35:34.046Z,3.30
2023-05-04T15:38:37.439Z,3.60
2023-05-04T15:41:40.334Z,3.70
2023-05-04T15:44:43.031Z,3.90
2023-05-04T15:47:46.027Z,3.60
2023-05-04T15:50:48.836Z,4.10
2023-05-04T15:53:51.690Z,4.38
2023-05-04T15:56:54.290Z,4.40
2023-05-04T15:59:56.996Z,4.18
2023-05-04T16:03:00.138Z,3.92
2023-05-04T16:06:02.672Z,3.88
2023-05-04T16:09:06.866Z,3.78
2023-05-04T16:12:09.736Z,4.20
2023-05-04T16:15:12.337Z,3.90
2023-05-04T16:18:14.956Z,3.97
2023-05-04T16:21:17.646Z,4.07
2023-05-04T16:24:20.206Z,3.75
2023-05-04T16:27:29.123Z,4.20
2023-05-04T16:30:34.356Z,4.15
2023-05-04T16:33:36.897Z,3.97
2023-05-04T16:36:39.402Z,3.90
2023-05-04T16:39:42.023Z,3.72
2023-05-04T16:42:45.138Z,4.10
2023-05-04T16:45:47.707Z,3.70
2023-05-04T16:48:50.508Z,3.65
2023-05-04T16:51:55.281Z,3.55
2023-05-04T16:55:04.557Z,3.78
2023-05-04T16:58:07.651Z,3.70
2023-05-04T17:01:11.496Z,3.40
2023-05-04T17:04:14.182Z,2.95
2023-05-04T17:07:16.816Z,3.42
2023-05-04T17:10:20.882Z,3.37
2023-05-04T17:13:23.383Z,3.50
2023-05-04T17:16:26.073Z,3.47
2023-05-04T17:19:28.752Z,3.40
2023-05-04T17:22:31.463Z,3.17
2023-05-04T17:25:34.134Z,3.60
2023-05-04T17:28:37.100Z,3.30
2023-05-04T17:31:39.681Z,3.45
2023-05-04T17:34:42.384Z,3.55
2023-05-04T17:37:44.924Z,3.50
2023-05-04T17:40:47.902Z,3.00
2023-05-04T17:43:50.929Z,3.53
2023-05-04T17:46:53.719Z,3.67
2023-05-04T17:49:56.418Z,3.28
2023-05-04T17:52:59.090Z,3.38
2023-05-04T17:56:02.219Z,3.03
2023-05-04T17:59:04.790Z,3.63
2023-05-04T18:02:07.530Z,3.78
2023-05-04T18:05:10.392Z,3.08
2023-05-04T18:08:13.521Z,3.10
2023-05-04T18:11:16.051Z,3.70
2023-05-04T18:14:18.583Z,4.07
2023-05-04T18:17:21.238Z,3.45
2023-05-04T18:20:25.325Z,3.30
2023-05-04T18:23:28.174Z,3.65
2023-05-04T18:26:30.863Z,3.83
2023-05-04T18:29:33.492Z,3.57
2023-05-04T18:32:36.747Z,4.00
2023-05-04T18:35:39.235Z,4.05
2023-05-04T18:38:41.817Z,4.20
2023-05-04T18:41:44.805Z,3.30
2023-05-04T18:44:54.465Z,4.00
2023-05-04T18:47:57.270Z,4.03
2023-05-04T18:51:01.180Z,3.95
2023-05-04T18:54:04.080Z,4.15
2023-05-04T18:57:06.806Z,3.90
2023-05-04T19:00:11.819Z,3.63
2023-05-04T19:03:15.031Z,4.63
2023-05-04T19:06:17.979Z,4.60
2023-05-04T19:09:20.842Z,4.00
2023-05-04T19:12:24.004Z,4.47
2023-05-04T19:15:26.919Z,4.07
2023-05-04T19:18:29.641Z,4.50
2023-05-04T19:21:32.331Z,4.70
2023-05-04T19:24:36.318Z,4.03
2023-05-04T19:27:39.420Z,4.30
2023-05-04T19:30:42.792Z,4.83
2023-05-04T19:33:48.860Z,4.50
2023-05-04T19:36:51.719Z,5.57
2023-05-04T19:39:54.729Z,5.35
2023-05-04T19:42:57.403Z,4.90
2023-05-04T19:46:03.906Z,5.17
2023-05-04T19:49:06.552Z,5.28
2023-05-04T19:52:09.131Z,5.00
2023-05-04T19:55:11.933Z,5.45
2023-05-04T19:58:15.396Z,5.73
2023-05-04T20:01:18.579Z,5.50
2023-05-04T20:04:21.268Z,6.30
2023-05-04T20:07:24.640Z,6.20
2023-05-04T20:10:27.615Z,6.25
2023-05-04T20:13:30.439Z,6.70
2023-05-04T20:16:33.131Z,6.07
2023-05-04T20:19:37.670Z,5.65
2023-05-04T20:22:40.252Z,5.95
2023-05-04T20:25:42.994Z,6.72
2023-05-04T20:28:45.519Z,6.57
2023-05-04T20:31:48.259Z,5.37
2023-05-04T20:34:50.940Z,5.38
2023-05-04T20:37:53.671Z,5.70
2023-05-04T20:40:57.772Z,5.10
2023-05-04T20:44:00.880Z,4.77
2023-05-04T20:47:04.692Z,5.43
2023-05-04T20:50:08.267Z,5.35
2023-05-04T20:53:11.576Z,5.15
2023-05-04T20:56:14.749Z,5.00
2023-05-04T20:59:17.830Z,4.60
2023-05-04T21:02:21.518Z,4.10
2023-05-04T21:05:24.569Z,3.90
2023-05-04T21:08:28.579Z,3.80
2023-05-04T21:11:31.853Z,3.28
2023-05-04T21:14:34.420Z,2.70
2023-05-04T21:17:37.129Z,2.30
2023-05-04T21:20:40.242Z,2.50
2023-05-04T21:23:43.667Z,2.15
2023-05-04T21:26:46.408Z,2.00
2023-05-04T21:29:48.994Z,1.80
2023-05-04T21:32:51.832Z,2.10
2023-05-04T21:35:54.437Z,1.88
2023-05-04T21:38:57.042Z,1.50
2023-05-04T21:41:59.901Z,1.90
2023-05-04T21:45:02.455Z,2.10
2023-05-04T21:48:06.073Z,1.90
2023-05-04T21:51:16.618Z,2.00
2023-05-04T21:54:22.136Z,1.67
2023-05-04T21:57:26.064Z,1.88
2023-05-04T22:00:33.528Z,2.00
2023-05-04T22:03:36.494Z,1.70
2023-05-04T22:06:39.043Z,1.80
2023-05-04T22:09:41.604Z,1.80
2023-05-04T22:12:44.231Z,1.70
2023-05-04T22:15:50.417Z,1.80
2023-05-04T22:18:53.606Z,2.00
2023-05-04T22:21:56.597Z,1.80
2023-05-04T22:24:59.182Z,1.90
2023-05-04T22:28:01.905Z,1.88
2023-05-04T22:31:04.905Z,2.20
2023-05-04T22:34:07.473Z,1.53
2023-05-04T22:37:09.982Z,2.00
2023-05-04T22:40:12.620Z,1.95
2023-05-04T22:43:16.844Z,2.28
2023-05-04T22:46:19.468Z,1.63
2023-05-04T22:49:22.070Z,1.77
2023-05-04T22:52:24.724Z,1.90
2023-05-04T22:55:27.854Z,1.80
2023-05-04T22:58:30.528Z,1.65
2023-05-04T23:01:33.151Z,2.00
2023-05-04T23:04:35.733Z,1.77
2023-05-04T23:07:38.257Z,1.80
2023-05-04T23:10:46.827Z,1.63
2023-05-04T23:13:49.375Z,1.98
2023-05-04T23:16:51.811Z,1.98
2023-05-04T23:19:54.343Z,1.90
2023-05-04T23:22:56.896Z,1.70
2023-05-04T23:25:59.449Z,1.63
2023-05-04T23:29:02.104Z,2.00
2023-05-04T23:32:05.154Z,1.98
2023-05-04T23:35:08.589Z,2.87
2023-05-04T23:38:11.134Z,1.97
2023-05-04T23:41:13.917Z,1.70
2023-05-04T23:44:16.654Z,1.90
2023-05-04T23:47:19.243Z,1.90
2023-05-04T23:50:22.012Z,1.90
2023-05-04T23:53:26.220Z,2.00
2023-05-04T23:56:28.797Z,1.83
2023-05-04T23:59:31.266Z,2.17
